Native Sun — WDD2862 — position and weather

sailwx.info

Track history (hours):
 
Tides and Currents Weather Stations Pressure Air Temp Water Temp Dewpoint Dewpoint Depression Visibility Wind Speed Wind Dir Waves Ship Positions

Native Sun

Owner: SVELLING, ERIC, BARNEGAT LIGHT, NJ. More information available from US FCC via Universal Licensing System and Coast Guard Vessel Documentation Center.

Last reported at 2018-Jul-09 14:06 UTC. Time now 2018-Aug-16 20:18 UTC.
Position N 39°46' W 074°07'.
Warning: this ship's position is 38 days out of date.

Length 14 m.

Type: Fishing. MMSI: 367120830.

Date/timePositionNaut miles runAvg speedWind from/ knotsBaromVisibWave heightAir tempDewpointWater temp
2018-Jul-09 14:06N 39°46' W 074°07'0 0.0
2018-Jul-09 13:47N 39°46' W 074°07'1 3.6
2018-Jul-09 13:28N 39°46' W 074°05'3 7.0
2018-Jul-09 13:00N 39°49' W 074°05'2 4.2
2018-Jul-09 12:28N 39°51' W 074°05'1 1.2
2018-Jul-09 12:00N 39°51' W 074°05'2 2.9
2018-Jul-09 11:29N 39°49' W 074°05'0 0.5
2018-Jul-09 11:00N 39°49' W 074°05'2 3.8
2018-Jul-09 10:28N 39°51' W 074°05'2 4.1
2018-Jul-09 10:00N 39°49' W 074°05'2 5.0
2018-Jul-09 09:30N 39°47' W 074°05'  
2018-Jul-03 16:46N 39°46' W 074°07'1 2.6
2018-Jul-03 16:30N 39°46' W 074°06'2 3.1
2018-Jul-03 15:55N 39°48' W 074°05'1 2.1
2018-Jul-03 15:27N 39°49' W 074°05'1 0.9
2018-Jul-03 14:49N 39°48' W 074°05'0 1.0
2018-Jul-03 14:30N 39°48' W 074°05'2 2.0
2018-Jul-03 13:41N 39°49' W 074°05'1 3.7
2018-Jul-03 13:30N 39°49' W 074°05'2 4.3
2018-Jul-03 12:57N 39°51' W 074°05'0 0.7
2018-Jul-03 12:29N 39°51' W 074°05'2 4.4
2018-Jul-03 11:59N 39°49' W 074°05'1 1.3
2018-Jul-03 11:30N 39°48' W 074°05'2 3.3
2018-Jul-03 10:50N 39°50' W 074°05'1 2.2
2018-Jul-03 10:28N 39°51' W 074°05'2 3.9
2018-Jul-03 09:57N 39°49' W 074°05'2 3.6
2018-Jul-03 09:31N 39°47' W 074°05'2 0.1
2018-Jul-02 17:29N 39°46' W 074°07'1 1.2
2018-Jul-02 17:00N 39°46' W 074°06'3 6.6
2018-Jul-02 16:30N 39°49' W 074°05'3 4.2
2018-Jul-02 15:54N 39°52' W 074°05'1 1.6
2018-Jul-02 15:27N 39°52' W 074°05'1 2.0
2018-Jul-02 14:55N 39°51' W 074°05'0 1.1
2018-Jul-02 14:29N 39°52' W 074°05'0 0.4
2018-Jul-02 13:50N 39°52' W 074°04'0 0.9
2018-Jul-02 13:28N 39°52' W 074°05'0 0.4
2018-Jul-02 12:47N 39°52' W 074°04'0 0.6
2018-Jul-02 11:55N 39°53' W 074°05'0 0.3
2018-Jul-02 11:27N 39°52' W 074°05'0 0.1
2018-Jul-02 10:24N 39°52' W 074°05'1 2.1
2018-Jul-02 09:53N 39°51' W 074°05'2 6.5
2018-Jul-02 09:30N 39°49' W 074°05'3 6.2
2018-Jul-02 09:00N 39°46' W 074°06'0 0.4
2018-Jul-02 07:49N 39°46' W 074°07'0 0.0
2018-Jul-02 07:28N 39°46' W 074°07'0 0.0
2018-Jul-02 06:58N 39°46' W 074°07'0 0.0
2018-Jul-02 06:28N 39°46' W 074°07'0 0.0
2018-Jul-02 05:58N 39°46' W 074°07'0 0.0
2018-Jul-02 05:22N 39°46' W 074°07'0 0.0
2018-Jul-02 04:58N 39°46' W 074°07'0 0.0
2018-Jul-02 04:28N 39°46' W 074°07'0 0.0
2018-Jul-02 03:55N 39°46' W 074°07'0 0.0
2018-Jul-02 03:25N 39°46' W 074°07'0 0.0
2018-Jul-02 02:49N 39°46' W 074°07'0 0.0
2018-Jul-02 02:22N 39°46' W 074°07'0 0.0
2018-Jul-02 01:43N 39°46' W 074°07'0 0.0
2018-Jul-02 01:25N 39°46' W 074°07'0 0.0
2018-Jul-02 00:43N 39°46' W 074°07'0 0.0
2018-Jul-02 00:13N 39°46' W 074°07'0 0.0
2018-Jul-01 23:55N 39°46' W 074°07'0 0.0
2018-Jul-01 23:25N 39°46' W 074°07'0 0.0
2018-Jul-01 22:55N 39°46' W 074°07'0 0.0
2018-Jul-01 22:25N 39°46' W 074°07'0 0.0
2018-Jul-01 21:43N 39°46' W 074°07'0 0.0
2018-Jul-01 21:25N 39°46' W 074°07'0 0.0
2018-Jul-01 20:55N 39°46' W 074°07'0 0.0
2018-Jul-01 20:25N 39°46' W 074°07'0 0.0
2018-Jul-01 19:55N 39°46' W 074°07'0 0.0
2018-Jul-01 19:19N 39°46' W 074°07'0 0.0
2018-Jul-01 18:55N 39°46' W 074°07'0 0.0
2018-Jul-01 18:19N 39°46' W 074°07'0 0.0
2018-Jul-01 17:55N 39°46' W 074°07'0 0.0
2018-Jul-01 17:22N 39°46' W 074°07'0 0.0
2018-Jul-01 16:45N 39°46' W 074°07'1 3.9
2018-Jul-01 16:25N 39°46' W 074°05'4 8.9
2018-Jul-01 16:00N 39°50' W 074°05'1 2.1
2018-Jul-01 15:22N 39°52' W 074°05'1 0.9
2018-Jul-01 14:29N 39°51' W 074°05'1 0.5
2018-Jul-01 12:47N 39°51' W 074°04'0 0.3
2018-Jul-01 12:21N 39°52' W 074°05'0 0.4
2018-Jul-01 11:54N 39°52' W 074°04'1 1.5
2018-Jul-01 11:28N 39°51' W 074°04'0 0.5
2018-Jul-01 10:59N 39°51' W 074°05'0 0.2
2018-Jul-01 10:29N 39°51' W 074°05'0 0.5
2018-Jul-01 09:59N 39°51' W 074°05'3 5.5
2018-Jul-01 09:26N 39°48' W 074°05'3 6.1
2018-Jul-01 09:00N 39°46' W 074°07'0 0.0
2018-Jun-30 19:47N 39°46' W 074°07'0 0.1
2018-Jun-30 19:24N 39°46' W 074°07'0 0.0
2018-Jun-30 18:57N 39°46' W 074°07'2 4.0
2018-Jun-30 18:27N 39°47' W 074°05'4 7.2
2018-Jun-30 17:57N 39°51' W 074°05'0 0.1
2018-Jun-30 17:27N 39°51' W 074°05'0 0.2
2018-Jun-30 16:57N 39°51' W 074°05'0 0.3
2018-Jun-30 16:01N 39°51' W 074°05'0 0.2
2018-Jun-30 15:43N 39°51' W 074°05'0 0.2
2018-Jun-30 15:13N 39°51' W 074°05'0 1.2
2018-Jun-30 15:00N 39°51' W 074°05'0 0.3
2018-Jun-30 14:26N 39°51' W 074°04'1 1.2
2018-Jun-30 13:49N 39°52' W 074°05'0 0.2
2018-Jun-30 13:14N 39°52' W 074°05'1 4.1
2018-Jun-30 12:58N 39°51' W 074°05'1 1.6
2018-Jun-30 12:22N 39°51' W 074°04'0 1.2
2018-Jun-30 12:00N 39°51' W 074°04'0 0.1
2018-Jun-30 11:23N 39°51' W 074°04'1 1.7
2018-Jun-30 11:00N 39°51' W 074°05'1 1.0
2018-Jun-30 10:30N 39°51' W 074°05'1 1.3
2018-Jun-30 10:00N 39°51' W 074°04'2 4.2
2018-Jun-30 09:30N 39°49' W 074°05'4 0.3
2018-Jun-29 19:06N 39°46' W 074°07'0 0.0
2018-Jun-29 18:54N 39°46' W 074°07'1 2.6
2018-Jun-29 18:29N 39°46' W 074°05'4 8.0
2018-Jun-29 17:59N 39°50' W 074°05'3 6.3
2018-Jun-29 17:30N 39°53' W 074°04'1 1.4
2018-Jun-29 16:51N 39°54' W 074°04'1 2.1
2018-Jun-29 16:30N 39°53' W 074°05'0 0.4
2018-Jun-29 15:11N 39°54' W 074°04'  
Track history (hours):
 
Tides and Currents Weather Stations Pressure Air Temp Water Temp Dewpoint Dewpoint Depression Visibility Wind Speed Wind Dir Waves Ship Positions

Native Sun

Owner: SVELLING, ERIC, BARNEGAT LIGHT, NJ. More information available from US FCC via Universal Licensing System and Coast Guard Vessel Documentation Center.

Last reported at 2018-Jul-09 14:06 UTC. Time now 2018-Aug-16 20:18 UTC.
Position N 39°46' W 074°07'.
Warning: this ship's position is 38 days out of date.

Length 14 m.

Type: Fishing. MMSI: 367120830.

Date/timePositionNaut miles runAvg speedWind from/ knotsBaromVisibWave heightAir tempDewpointWater temp
2018-Jul-09 14:06N 39°46' W 074°07'0 0.0
2018-Jul-09 13:47N 39°46' W 074°07'1 3.6
2018-Jul-09 13:28N 39°46' W 074°05'3 7.0
2018-Jul-09 13:00N 39°49' W 074°05'2 4.2
2018-Jul-09 12:28N 39°51' W 074°05'1 1.2
2018-Jul-09 12:00N 39°51' W 074°05'2 2.9
2018-Jul-09 11:29N 39°49' W 074°05'0 0.5
2018-Jul-09 11:00N 39°49' W 074°05'2 3.8
2018-Jul-09 10:28N 39°51' W 074°05'2 4.1
2018-Jul-09 10:00N 39°49' W 074°05'2 5.0
2018-Jul-09 09:30N 39°47' W 074°05'  
2018-Jul-03 16:46N 39°46' W 074°07'1 2.6
2018-Jul-03 16:30N 39°46' W 074°06'2 3.1
2018-Jul-03 15:55N 39°48' W 074°05'1 2.1
2018-Jul-03 15:27N 39°49' W 074°05'1 0.9
2018-Jul-03 14:49N 39°48' W 074°05'0 1.0
2018-Jul-03 14:30N 39°48' W 074°05'2 2.0
2018-Jul-03 13:41N 39°49' W 074°05'1 3.7
2018-Jul-03 13:30N 39°49' W 074°05'2 4.3
2018-Jul-03 12:57N 39°51' W 074°05'0 0.7
2018-Jul-03 12:29N 39°51' W 074°05'2 4.4
2018-Jul-03 11:59N 39°49' W 074°05'1 1.3
2018-Jul-03 11:30N 39°48' W 074°05'2 3.3
2018-Jul-03 10:50N 39°50' W 074°05'1 2.2
2018-Jul-03 10:28N 39°51' W 074°05'2 3.9
2018-Jul-03 09:57N 39°49' W 074°05'2 3.6
2018-Jul-03 09:31N 39°47' W 074°05'2 0.1
2018-Jul-02 17:29N 39°46' W 074°07'1 1.2
2018-Jul-02 17:00N 39°46' W 074°06'3 6.6
2018-Jul-02 16:30N 39°49' W 074°05'3 4.2
2018-Jul-02 15:54N 39°52' W 074°05'1 1.6
2018-Jul-02 15:27N 39°52' W 074°05'1 2.0
2018-Jul-02 14:55N 39°51' W 074°05'0 1.1
2018-Jul-02 14:29N 39°52' W 074°05'0 0.4
2018-Jul-02 13:50N 39°52' W 074°04'0 0.9
2018-Jul-02 13:28N 39°52' W 074°05'0 0.4
2018-Jul-02 12:47N 39°52' W 074°04'0 0.6
2018-Jul-02 11:55N 39°53' W 074°05'0 0.3
2018-Jul-02 11:27N 39°52' W 074°05'0 0.1
2018-Jul-02 10:24N 39°52' W 074°05'1 2.1
2018-Jul-02 09:53N 39°51' W 074°05'2 6.5
2018-Jul-02 09:30N 39°49' W 074°05'3 6.2
2018-Jul-02 09:00N 39°46' W 074°06'0 0.4
2018-Jul-02 07:49N 39°46' W 074°07'0 0.0
2018-Jul-02 07:28N 39°46' W 074°07'0 0.0
2018-Jul-02 06:58N 39°46' W 074°07'0 0.0
2018-Jul-02 06:28N 39°46' W 074°07'0 0.0
2018-Jul-02 05:58N 39°46' W 074°07'0 0.0
2018-Jul-02 05:22N 39°46' W 074°07'0 0.0
2018-Jul-02 04:58N 39°46' W 074°07'0 0.0
2018-Jul-02 04:28N 39°46' W 074°07'0 0.0
2018-Jul-02 03:55N 39°46' W 074°07'0 0.0
2018-Jul-02 03:25N 39°46' W 074°07'0 0.0
2018-Jul-02 02:49N 39°46' W 074°07'0 0.0
2018-Jul-02 02:22N 39°46' W 074°07'0 0.0
2018-Jul-02 01:43N 39°46' W 074°07'0 0.0
2018-Jul-02 01:25N 39°46' W 074°07'0 0.0
2018-Jul-02 00:43N 39°46' W 074°07'0 0.0
2018-Jul-02 00:13N 39°46' W 074°07'0 0.0
2018-Jul-01 23:55N 39°46' W 074°07'0 0.0
2018-Jul-01 23:25N 39°46' W 074°07'0 0.0
2018-Jul-01 22:55N 39°46' W 074°07'0 0.0
2018-Jul-01 22:25N 39°46' W 074°07'0 0.0
2018-Jul-01 21:43N 39°46' W 074°07'0 0.0
2018-Jul-01 21:25N 39°46' W 074°07'0 0.0
2018-Jul-01 20:55N 39°46' W 074°07'0 0.0
2018-Jul-01 20:25N 39°46' W 074°07'0 0.0
2018-Jul-01 19:55N 39°46' W 074°07'0 0.0
2018-Jul-01 19:19N 39°46' W 074°07'0 0.0
2018-Jul-01 18:55N 39°46' W 074°07'0 0.0
2018-Jul-01 18:19N 39°46' W 074°07'0 0.0
2018-Jul-01 17:55N 39°46' W 074°07'0 0.0
2018-Jul-01 17:22N 39°46' W 074°07'0 0.0
2018-Jul-01 16:45N 39°46' W 074°07'1 3.9
2018-Jul-01 16:25N 39°46' W 074°05'4 8.9
2018-Jul-01 16:00N 39°50' W 074°05'1 2.1
2018-Jul-01 15:22N 39°52' W 074°05'1 0.9
2018-Jul-01 14:29N 39°51' W 074°05'1 0.5
2018-Jul-01 12:47N 39°51' W 074°04'0 0.3
2018-Jul-01 12:21N 39°52' W 074°05'0 0.4
2018-Jul-01 11:54N 39°52' W 074°04'1 1.5
2018-Jul-01 11:28N 39°51' W 074°04'0 0.5
2018-Jul-01 10:59N 39°51' W 074°05'0 0.2
2018-Jul-01 10:29N 39°51' W 074°05'0 0.5
2018-Jul-01 09:59N 39°51' W 074°05'3 5.5
2018-Jul-01 09:26N 39°48' W 074°05'3 6.1
2018-Jul-01 09:00N 39°46' W 074°07'0 0.0
2018-Jun-30 19:47N 39°46' W 074°07'0 0.1
2018-Jun-30 19:24N 39°46' W 074°07'0 0.0
2018-Jun-30 18:57N 39°46' W 074°07'2 4.0
2018-Jun-30 18:27N 39°47' W 074°05'4 7.2
2018-Jun-30 17:57N 39°51' W 074°05'0 0.1
2018-Jun-30 17:27N 39°51' W 074°05'0 0.2
2018-Jun-30 16:57N 39°51' W 074°05'0 0.3
2018-Jun-30 16:01N 39°51' W 074°05'0 0.2
2018-Jun-30 15:43N 39°51' W 074°05'0 0.2
2018-Jun-30 15:13N 39°51' W 074°05'0 1.2
2018-Jun-30 15:00N 39°51' W 074°05'0 0.3
2018-Jun-30 14:26N 39°51' W 074°04'1 1.2
2018-Jun-30 13:49N 39°52' W 074°05'0 0.2
2018-Jun-30 13:14N 39°52' W 074°05'1 4.1
2018-Jun-30 12:58N 39°51' W 074°05'1 1.6
2018-Jun-30 12:22N 39°51' W 074°04'0 1.2
2018-Jun-30 12:00N 39°51' W 074°04'0 0.1
2018-Jun-30 11:23N 39°51' W 074°04'1 1.7
2018-Jun-30 11:00N 39°51' W 074°05'1 1.0
2018-Jun-30 10:30N 39°51' W 074°05'1 1.3
2018-Jun-30 10:00N 39°51' W 074°04'2 4.2
2018-Jun-30 09:30N 39°49' W 074°05'4 0.3
2018-Jun-29 19:06N 39°46' W 074°07'0 0.0
2018-Jun-29 18:54N 39°46' W 074°07'1 2.6
2018-Jun-29 18:29N 39°46' W 074°05'4 8.0
2018-Jun-29 17:59N 39°50' W 074°05'3 6.3
2018-Jun-29 17:30N 39°53' W 074°04'1 1.4
2018-Jun-29 16:51N 39°54' W 074°04'1 2.1
2018-Jun-29 16:30N 39°53' W 074°05'0 0.4
2018-Jun-29 15:11N 39°54' W 074°04'  

Dump ship's entire track history